Kansai — JD3272 — position and weather

sailwx.info

Track history (hours):
 
Tides and Currents Weather Stations Pressure Air Temp Water Temp Dewpoint Dewpoint Depression Visibility Wind Speed Wind Dir Waves Ship Positions

Kansai

Last reported at 2016-Dec-08 14:05 UTC. Time now 2016-Dec-08 16:13 UTC.
Position N 34°01' E 134°59'.

Length 73 m; draft 4.2 m.

Type: Cargo ship. MMSI: 431003134.

Date/timePositionNaut miles runAvg speedWind from/ knotsBaromVisibWave heightAir tempDewpointWater temp
2016-Dec-08 14:05N 34°01' E 134°59'610.4
2016-Dec-08 13:31N 34°07' E 134°59'1111.5
2016-Dec-08 12:33N 34°18' E 134°59'1111.3
2016-Dec-08 11:33N 34°29' E 135°01'9 8.0
2016-Dec-08 10:28N 34°36' E 134°56'8 0.3
2016-Dec-07 07:16N 34°41' E 134°49'4 1.0
2016-Dec-07 03:32N 34°39' E 134°52'1212.0
2016-Dec-07 02:33N 34°34' E 135°05'  
2016-Dec-04 13:16N 34°01' E 134°60'810.5
2016-Dec-04 12:29N 34°09' E 134°59'1110.5
2016-Dec-04 11:29N 34°20' E 134°59'1010.8
2016-Dec-04 10:33N 34°30' E 135°02'8 7.3
2016-Dec-04 09:29N 34°36' E 134°57'9 0.6
2016-Dec-03 17:16N 34°41' E 134°47'710.1
2016-Dec-03 16:33N 34°37' E 134°55'9 9.4
2016-Dec-03 15:33N 34°33' E 135°05'229 7.8
2016-Dec-02 10:21N 35°06' E 139°41'911.0
2016-Dec-02 09:30N 35°14' E 139°46'1011.0
2016-Dec-02 08:33N 35°24' E 139°43'1111.3
2016-Dec-02 07:33N 35°32' E 139°53'8 0.4
2016-Dec-01 09:31N 35°39' E 139°58'1010.4
2016-Dec-01 08:34N 35°30' E 139°53'1110.8
2016-Dec-01 07:34N 35°21' E 139°45'1310.4
2016-Dec-01 06:16N 35°08' E 139°46'245 8.5
2016-Nov-30 01:33N 34°02' E 134°60'1110.7
2016-Nov-30 00:33N 34°12' E 134°59'10 8.4
2016-Nov-29 23:24N 34°22' E 134°60'8 9.8
2016-Nov-29 22:33N 34°30' E 135°02'7 6.6
2016-Nov-29 21:33N 34°37' E 135°01'10 8.0
2016-Nov-29 20:22N 34°40' E 134°50'4 0.3
2016-Nov-29 04:28N 34°38' E 134°54'8 8.7
2016-Nov-29 03:33N 34°36' E 135°04'  
Track history (hours):
 
Tides and Currents Weather Stations Pressure Air Temp Water Temp Dewpoint Dewpoint Depression Visibility Wind Speed Wind Dir Waves Ship Positions

Kansai

Last reported at 2016-Dec-08 14:05 UTC. Time now 2016-Dec-08 16:13 UTC.
Position N 34°01' E 134°59'.

Length 73 m; draft 4.2 m.

Type: Cargo ship. MMSI: 431003134.

Date/timePositionNaut miles runAvg speedWind from/ knotsBaromVisibWave heightAir tempDewpointWater temp
2016-Dec-08 14:05N 34°01' E 134°59'610.4
2016-Dec-08 13:31N 34°07' E 134°59'1111.5
2016-Dec-08 12:33N 34°18' E 134°59'1111.3
2016-Dec-08 11:33N 34°29' E 135°01'9 8.0
2016-Dec-08 10:28N 34°36' E 134°56'8 0.3
2016-Dec-07 07:16N 34°41' E 134°49'4 1.0
2016-Dec-07 03:32N 34°39' E 134°52'1212.0
2016-Dec-07 02:33N 34°34' E 135°05'  
2016-Dec-04 13:16N 34°01' E 134°60'810.5
2016-Dec-04 12:29N 34°09' E 134°59'1110.5
2016-Dec-04 11:29N 34°20' E 134°59'1010.8
2016-Dec-04 10:33N 34°30' E 135°02'8 7.3
2016-Dec-04 09:29N 34°36' E 134°57'9 0.6
2016-Dec-03 17:16N 34°41' E 134°47'710.1
2016-Dec-03 16:33N 34°37' E 134°55'9 9.4
2016-Dec-03 15:33N 34°33' E 135°05'229 7.8
2016-Dec-02 10:21N 35°06' E 139°41'911.0
2016-Dec-02 09:30N 35°14' E 139°46'1011.0
2016-Dec-02 08:33N 35°24' E 139°43'1111.3
2016-Dec-02 07:33N 35°32' E 139°53'8 0.4
2016-Dec-01 09:31N 35°39' E 139°58'1010.4
2016-Dec-01 08:34N 35°30' E 139°53'1110.8
2016-Dec-01 07:34N 35°21' E 139°45'1310.4
2016-Dec-01 06:16N 35°08' E 139°46'245 8.5
2016-Nov-30 01:33N 34°02' E 134°60'1110.7
2016-Nov-30 00:33N 34°12' E 134°59'10 8.4
2016-Nov-29 23:24N 34°22' E 134°60'8 9.8
2016-Nov-29 22:33N 34°30' E 135°02'7 6.6
2016-Nov-29 21:33N 34°37' E 135°01'10 8.0
2016-Nov-29 20:22N 34°40' E 134°50'4 0.3
2016-Nov-29 04:28N 34°38' E 134°54'8 8.7
2016-Nov-29 03:33N 34°36' E 135°04'  

Dump ship's entire track history